createdAt,value
2017-09-22T00:00:34.483Z,945.1
2017-09-22T00:01:42.448Z,945.1
2017-09-22T00:02:50.682Z,945.1
2017-09-22T00:03:58.626Z,945.1
2017-09-22T00:05:06.717Z,945.1
2017-09-22T00:06:14.922Z,945.1
2017-09-22T00:07:22.890Z,945.1
2017-09-22T00:08:31.024Z,945.1
2017-09-22T00:09:39.066Z,945.1
2017-09-22T00:10:47.155Z,945.1
2017-09-22T00:11:55.363Z,945.1
2017-09-22T00:13:03.477Z,945.1
2017-09-22T00:14:11.476Z,945.1
2017-09-22T00:15:19.507Z,945.1
2017-09-22T00:16:27.596Z,945.2
2017-09-22T00:17:35.787Z,945.2
2017-09-22T00:18:43.770Z,945.1
2017-09-22T00:19:51.858Z,945.2
2017-09-22T00:20:59.947Z,945.2
2017-09-22T00:22:08.083Z,945.2
2017-09-22T00:23:16.243Z,945.1
2017-09-22T00:24:24.212Z,945.2
2017-09-22T00:25:32.306Z,945.2
2017-09-22T00:26:40.410Z,945.1
2017-09-22T00:27:48.483Z,945.1
2017-09-22T00:28:56.629Z,945.1
2017-09-22T00:30:04.718Z,945.1
2017-09-22T00:31:12.861Z,945.1
2017-09-22T00:32:20.835Z,945.1
2017-09-22T00:33:29.291Z,945.1
2017-09-22T00:34:37.501Z,945.1
2017-09-22T00:35:45.467Z,945.0
2017-09-22T00:36:53.555Z,945.0
2017-09-22T00:38:01.656Z,945.0
2017-09-22T00:39:09.734Z,945.0
2017-09-22T00:40:17.889Z,945.0
2017-09-22T00:41:25.911Z,945.0
2017-09-22T00:42:34.000Z,945.0
2017-09-22T00:43:42.160Z,945.0
2017-09-22T00:44:50.179Z,945.0
2017-09-22T00:45:58.323Z,945.0
2017-09-22T00:47:06.351Z,945.0
2017-09-22T00:48:14.441Z,945.0
2017-09-22T00:49:22.543Z,945.0
2017-09-22T00:50:30.618Z,945.0
2017-09-22T00:51:38.825Z,945.0
2017-09-22T00:52:46.794Z,945.0
2017-09-22T00:53:54.887Z,945.0
2017-09-22T00:55:02.969Z,945.0
2017-09-22T00:56:11.060Z,945.0
2017-09-22T00:57:19.300Z,945.0
2017-09-22T00:58:27.236Z,945.0
2017-09-22T00:59:35.323Z,945.0
2017-09-22T01:00:43.412Z,945.0
2017-09-22T01:01:51.555Z,945.0
2017-09-22T01:02:59.708Z,945.1
2017-09-22T01:04:07.678Z,945.1
2017-09-22T01:05:15.770Z,945.1
2017-09-22T01:06:24.029Z,945.0
2017-09-22T01:07:31.942Z,945.0
2017-09-22T01:08:40.085Z,945.0
2017-09-22T01:09:48.118Z,945.0
2017-09-22T01:10:56.379Z,945.0
2017-09-22T01:12:04.305Z,945.0
2017-09-22T01:13:12.389Z,945.0
2017-09-22T01:14:20.535Z,945.0
2017-09-22T01:15:28.566Z,944.9
2017-09-22T01:16:36.655Z,945.0
2017-09-22T01:17:44.801Z,944.9
2017-09-22T01:18:52.829Z,944.9
2017-09-22T01:20:01.042Z,944.9
2017-09-22T01:21:09.017Z,944.9
2017-09-22T01:22:17.115Z,944.9
2017-09-22T01:23:25.202Z,945.0
2017-09-22T01:24:33.291Z,945.0
2017-09-22T01:25:41.433Z,945.0
2017-09-22T01:26:49.466Z,945.0
2017-09-22T01:27:57.553Z,944.9
2017-09-22T01:29:05.642Z,944.9
2017-09-22T01:30:13.731Z,944.9
2017-09-22T01:31:21.876Z,945.0
2017-09-22T01:32:29.911Z,944.9
2017-09-22T01:33:38.053Z,944.9
2017-09-22T01:34:46.083Z,944.9
2017-09-22T01:35:54.180Z,944.9
2017-09-22T01:37:02.391Z,944.9
2017-09-22T01:38:10.540Z,944.9
2017-09-22T01:39:18.451Z,944.9
2017-09-22T01:40:26.538Z,944.9
2017-09-22T01:41:34.629Z,944.9
2017-09-22T01:42:42.938Z,944.9
2017-09-22T01:43:50.805Z,944.9
2017-09-22T01:44:58.895Z,944.8
2017-09-22T01:46:06.983Z,944.9
2017-09-22T01:47:15.072Z,944.9
2017-09-22T01:48:23.218Z,944.8
2017-09-22T01:49:31.308Z,944.9
2017-09-22T01:50:39.339Z,944.9
2017-09-22T01:51:47.424Z,944.8
2017-09-22T01:52:55.514Z,944.8
2017-09-22T01:54:03.722Z,944.9
2017-09-22T01:55:11.694Z,944.8
2017-09-22T01:56:19.778Z,944.8
2017-09-22T01:57:27.869Z,944.8
2017-09-22T01:58:35.956Z,944.8
2017-09-22T01:59:44.104Z,944.8
2017-09-22T02:00:52.268Z,944.8
2017-09-22T02:02:00.278Z,944.8
2017-09-22T02:03:08.311Z,944.7
2017-09-22T02:04:16.398Z,944.8
2017-09-22T02:05:24.607Z,944.8
2017-09-22T02:06:32.575Z,944.7
2017-09-22T02:07:40.664Z,944.7
2017-09-22T02:08:48.749Z,944.7
2017-09-22T02:09:56.980Z,944.7
2017-09-22T02:11:05.041Z,944.7
2017-09-22T02:12:13.015Z,944.8
2017-09-22T02:13:21.103Z,944.8
2017-09-22T02:14:29.192Z,944.8
2017-09-22T02:15:37.337Z,944.7
2017-09-22T02:16:45.488Z,944.7
2017-09-22T02:17:53.457Z,944.7
2017-09-22T02:19:01.557Z,944.7
2017-09-22T02:20:09.692Z,944.7
2017-09-22T02:21:17.852Z,944.7
2017-09-22T02:22:25.882Z,944.7
2017-09-22T02:23:33.914Z,944.7
2017-09-22T02:24:42.041Z,944.7
2017-09-22T02:25:50.169Z,944.7
2017-09-22T02:26:58.175Z,944.8
2017-09-22T02:28:06.385Z,944.7
2017-09-22T02:29:14.348Z,944.7
2017-09-22T02:30:22.440Z,944.7
2017-09-22T02:31:30.531Z,944.7
2017-09-22T02:32:38.614Z,944.7
2017-09-22T02:33:46.892Z,944.7
2017-09-22T02:34:54.795Z,944.7
2017-09-22T02:36:02.889Z,944.7
2017-09-22T02:37:11.024Z,944.7
2017-09-22T02:38:19.067Z,944.7
2017-09-22T02:39:27.201Z,944.7
2017-09-22T02:40:35.232Z,944.7
2017-09-22T02:41:43.321Z,944.8
2017-09-22T02:42:51.410Z,944.7
2017-09-22T02:43:59.504Z,944.7
2017-09-22T02:45:07.711Z,944.8
2017-09-22T02:46:15.678Z,944.8
2017-09-22T02:47:23.772Z,944.8
2017-09-22T02:48:31.861Z,944.8
2017-09-22T02:49:39.964Z,944.8
2017-09-22T02:50:48.097Z,944.8
2017-09-22T02:51:56.227Z,944.8
2017-09-22T02:53:04.296Z,944.8
2017-09-22T02:54:12.304Z,944.8
2017-09-22T02:55:20.398Z,944.8
2017-09-22T02:56:28.543Z,944.8
2017-09-22T02:57:36.574Z,944.8
2017-09-22T02:58:44.662Z,944.8
2017-09-22T02:59:52.749Z,944.8
2017-09-22T03:01:01.010Z,944.8
2017-09-22T03:02:09.047Z,944.8
2017-09-22T03:03:17.012Z,944.8
2017-09-22T03:04:25.101Z,944.8
2017-09-22T03:05:33.190Z,944.8
2017-09-22T03:06:41.277Z,944.8
2017-09-22T03:07:49.436Z,944.8
2017-09-22T03:08:57.522Z,944.8
2017-09-22T03:10:05.558Z,944.8
2017-09-22T03:11:13.653Z,944.8
2017-09-22T03:12:21.741Z,944.8
2017-09-22T03:13:29.947Z,944.8
2017-09-22T03:14:37.915Z,944.8
2017-09-22T03:15:46.116Z,944.8
2017-09-22T03:16:54.134Z,944.7
2017-09-22T03:18:02.190Z,944.7
2017-09-22T03:19:10.396Z,944.7
2017-09-22T03:20:18.375Z,944.7
2017-09-22T03:21:26.464Z,944.7
2017-09-22T03:22:34.552Z,944.7
2017-09-22T03:23:42.636Z,944.7
2017-09-22T03:24:50.782Z,944.7
2017-09-22T03:25:58.812Z,944.6
2017-09-22T03:27:06.902Z,944.7
2017-09-22T03:28:14.991Z,944.6
2017-09-22T03:29:23.080Z,944.6
2017-09-22T03:30:31.228Z,944.6
2017-09-22T03:31:39.257Z,944.6
2017-09-22T03:32:47.355Z,944.6
2017-09-22T03:33:55.441Z,944.6
2017-09-22T03:35:03.533Z,944.6
2017-09-22T03:36:11.743Z,944.6
2017-09-22T03:37:19.707Z,944.6
2017-09-22T03:38:27.847Z,944.6
2017-09-22T03:39:35.975Z,944.6
2017-09-22T03:40:44.039Z,944.6
2017-09-22T03:41:52.129Z,944.6
2017-09-22T03:43:00.160Z,944.6
2017-09-22T03:44:08.246Z,944.6
2017-09-22T03:45:16.334Z,944.6
2017-09-22T03:46:24.426Z,944.6
2017-09-22T03:47:32.647Z,944.6
2017-09-22T03:48:40.607Z,944.6
2017-09-22T03:49:48.699Z,944.6
2017-09-22T03:50:56.787Z,944.6
2017-09-22T03:52:04.998Z,944.6
2017-09-22T03:53:13.016Z,944.6
2017-09-22T03:54:21.446Z,944.5
2017-09-22T03:55:29.135Z,944.6
2017-09-22T03:56:37.280Z,944.6
2017-09-22T03:57:45.311Z,944.6
2017-09-22T03:58:53.518Z,944.6
2017-09-22T04:00:01.616Z,944.6
2017-09-22T04:01:09.958Z,944.6
2017-09-22T04:02:17.703Z,944.6
2017-09-22T04:03:25.748Z,944.6
2017-09-22T04:04:33.890Z,944.6
2017-09-22T04:05:42.009Z,944.6
2017-09-22T04:06:50.010Z,944.6
2017-09-22T04:07:58.104Z,944.7
2017-09-22T04:09:06.200Z,944.7
2017-09-22T04:10:14.489Z,944.7
2017-09-22T04:11:22.365Z,944.6
2017-09-22T04:12:30.576Z,944.7
2017-09-22T04:13:38.544Z,944.6
2017-09-22T04:14:46.729Z,944.7
2017-09-22T04:15:54.774Z,944.6
2017-09-22T04:17:02.805Z,944.7
2017-09-22T04:18:10.893Z,944.7
2017-09-22T04:19:18.984Z,944.7
2017-09-22T04:20:27.068Z,944.7
2017-09-22T04:21:35.220Z,944.7
2017-09-22T04:22:43.260Z,944.7
2017-09-22T04:23:51.510Z,944.7
2017-09-22T04:24:59.441Z,944.7
2017-09-22T04:26:07.528Z,944.8
2017-09-22T04:27:15.734Z,944.8
2017-09-22T04:28:23.915Z,944.7
2017-09-22T04:29:31.789Z,944.8
2017-09-22T04:30:39.881Z,944.8
2017-09-22T04:31:47.968Z,944.7
2017-09-22T04:32:56.249Z,944.7
2017-09-22T04:34:04.146Z,944.7
2017-09-22T04:35:12.227Z,944.7
2017-09-22T04:36:20.316Z,944.7
2017-09-22T04:37:28.402Z,944.7
2017-09-22T04:38:36.610Z,944.7
2017-09-22T04:39:44.575Z,944.7
2017-09-22T04:40:52.671Z,944.7
2017-09-22T04:42:00.762Z,944.7
2017-09-22T04:43:08.846Z,944.7
2017-09-22T04:44:17.052Z,944.7
2017-09-22T04:45:25.719Z,944.7
2017-09-22T04:46:33.114Z,944.7
2017-09-22T04:47:41.201Z,944.7
2017-09-22T04:48:49.290Z,944.7
2017-09-22T04:49:57.434Z,944.7
2017-09-22T04:51:05.479Z,944.7
2017-09-22T04:52:13.958Z,944.7
2017-09-22T04:53:21.652Z,944.7
2017-09-22T04:54:29.739Z,944.7
2017-09-22T04:55:37.882Z,944.7
2017-09-22T04:56:46.500Z,944.7
2017-09-22T04:57:54.009Z,944.7
2017-09-22T04:59:02.337Z,944.7
2017-09-22T05:00:10.567Z,944.7
2017-09-22T05:01:18.326Z,944.7
2017-09-22T05:02:26.361Z,944.8
2017-09-22T05:03:34.595Z,944.7
2017-09-22T05:04:42.654Z,944.8
2017-09-22T05:05:51.242Z,944.8
2017-09-22T05:06:59.102Z,944.8
2017-09-22T05:08:06.798Z,944.8
2017-09-22T05:09:14.878Z,944.8
2017-09-22T05:10:22.968Z,944.8
2017-09-22T05:11:31.053Z,944.8
2017-09-22T05:12:39.264Z,944.8
2017-09-22T05:13:47.230Z,944.9
2017-09-22T05:14:55.376Z,944.9
2017-09-22T05:16:03.466Z,944.9
2017-09-22T05:17:11.493Z,944.8
2017-09-22T05:18:19.640Z,944.9
2017-09-22T05:19:27.838Z,944.9
2017-09-22T05:20:35.771Z,944.9
2017-09-22T05:21:43.860Z,944.9
2017-09-22T05:22:51.947Z,944.9
2017-09-22T05:24:00.192Z,944.9
2017-09-22T05:25:08.127Z,944.9
2017-09-22T05:26:16.223Z,944.9
2017-09-22T05:27:24.310Z,944.9
2017-09-22T05:28:32.396Z,945.0
2017-09-22T05:29:40.538Z,944.9
2017-09-22T05:30:48.578Z,944.9
2017-09-22T05:31:56.787Z,944.9
2017-09-22T05:33:04.754Z,944.9
2017-09-22T05:34:12.849Z,944.9
2017-09-22T05:35:20.987Z,944.9
2017-09-22T05:36:29.021Z,944.9
2017-09-22T05:37:37.108Z,944.9
2017-09-22T05:38:45.373Z,944.9
2017-09-22T05:39:53.280Z,944.9
2017-09-22T05:41:01.424Z,944.9
2017-09-22T05:42:09.455Z,944.9
2017-09-22T05:43:17.540Z,944.9
2017-09-22T05:44:25.627Z,944.9
2017-09-22T05:45:33.711Z,944.9
2017-09-22T05:46:41.919Z,944.9
2017-09-22T05:47:49.942Z,944.9
2017-09-22T05:48:57.973Z,945.0
2017-09-22T05:50:06.059Z,944.9
2017-09-22T05:51:14.149Z,945.0
2017-09-22T05:52:22.289Z,945.0
2017-09-22T05:53:30.320Z,945.0
2017-09-22T05:54:38.407Z,945.0
2017-09-22T05:55:46.491Z,945.0
2017-09-22T05:56:54.580Z,945.0
2017-09-22T05:58:02.788Z,945.0
2017-09-22T05:59:10.755Z,945.0
2017-09-22T06:00:18.843Z,945.0
2017-09-22T06:01:27.011Z,945.0
2017-09-22T06:02:35.013Z,945.0
2017-09-22T06:03:43.222Z,945.0
2017-09-22T06:04:51.184Z,945.0
2017-09-22T06:05:59.272Z,945.0
2017-09-22T06:07:07.366Z,945.0
2017-09-22T06:08:15.446Z,945.0
2017-09-22T06:09:23.590Z,945.0
2017-09-22T06:10:31.690Z,945.1
2017-09-22T06:11:39.706Z,945.1
2017-09-22T06:12:47.794Z,945.0
2017-09-22T06:13:55.881Z,945.1
2017-09-22T06:15:04.023Z,945.1
2017-09-22T06:16:12.055Z,945.1
2017-09-22T06:17:20.140Z,945.1
2017-09-22T06:18:28.227Z,945.1
2017-09-22T06:19:36.434Z,945.1
2017-09-22T06:20:44.520Z,945.1
2017-09-22T06:21:52.489Z,945.2
2017-09-22T06:23:00.578Z,945.2
2017-09-22T06:24:08.838Z,945.2
2017-09-22T06:25:16.753Z,945.3
2017-09-22T06:26:24.893Z,945.2
2017-09-22T06:27:32.923Z,945.2
2017-09-22T06:28:41.181Z,945.2
2017-09-22T06:29:49.234Z,945.3
2017-09-22T06:30:57.187Z,945.3
2017-09-22T06:32:05.389Z,945.3
2017-09-22T06:33:13.375Z,945.3
2017-09-22T06:34:21.441Z,945.2
2017-09-22T06:35:29.582Z,945.2
2017-09-22T06:36:37.614Z,945.3
2017-09-22T06:37:45.758Z,945.3
2017-09-22T06:38:53.786Z,945.2
2017-09-22T06:40:01.873Z,945.3
2017-09-22T06:41:09.960Z,945.3
2017-09-22T06:42:18.221Z,945.3
2017-09-22T06:43:26.251Z,945.3
2017-09-22T06:44:34.218Z,945.3
2017-09-22T06:45:42.304Z,945.3
2017-09-22T06:46:50.390Z,945.3
2017-09-22T06:47:58.478Z,945.4
2017-09-22T06:49:06.622Z,945.4
2017-09-22T06:50:14.651Z,945.3
2017-09-22T06:51:22.986Z,945.3
2017-09-22T06:52:30.985Z,945.3
2017-09-22T06:53:38.909Z,945.3
2017-09-22T06:54:47.123Z,945.3
2017-09-22T06:55:55.082Z,945.3
2017-09-22T06:57:03.169Z,945.3
2017-09-22T06:58:11.257Z,945.3
2017-09-22T06:59:19.342Z,945.3
2017-09-22T07:00:27.558Z,945.3
2017-09-22T07:01:35.516Z,945.3
2017-09-22T07:02:43.601Z,945.3
2017-09-22T07:03:51.703Z,945.4
2017-09-22T07:04:59.771Z,945.4
2017-09-22T07:06:07.916Z,945.4
2017-09-22T07:07:16.065Z,945.4
2017-09-22T07:08:24.041Z,945.4
2017-09-22T07:09:32.125Z,945.4
2017-09-22T07:10:40.390Z,945.4
2017-09-22T07:11:48.356Z,945.5
2017-09-22T07:12:56.383Z,945.5
2017-09-22T07:14:04.470Z,945.5
2017-09-22T07:15:12.724Z,945.5
2017-09-22T07:16:20.644Z,945.5
2017-09-22T07:17:28.848Z,945.5
2017-09-22T07:18:36.819Z,945.4
2017-09-22T07:19:44.902Z,945.5
2017-09-22T07:20:52.988Z,945.5
2017-09-22T07:22:01.074Z,945.4
2017-09-22T07:23:09.216Z,945.5
2017-09-22T07:24:17.399Z,945.5
2017-09-22T07:25:25.335Z,945.5
2017-09-22T07:26:33.420Z,945.5
2017-09-22T07:27:41.508Z,945.5
2017-09-22T07:28:49.801Z,945.5
2017-09-22T07:29:57.681Z,945.4
2017-09-22T07:31:05.770Z,945.5
2017-09-22T07:32:13.854Z,945.4
2017-09-22T07:33:21.943Z,945.5
2017-09-22T07:34:30.149Z,945.5
2017-09-22T07:35:38.113Z,945.5
2017-09-22T07:36:46.199Z,945.5
2017-09-22T07:37:54.287Z,945.5
2017-09-22T07:39:02.428Z,945.5
2017-09-22T07:40:10.581Z,945.5
2017-09-22T07:41:18.547Z,945.5
2017-09-22T07:42:26.797Z,945.5
2017-09-22T07:43:34.848Z,945.5
2017-09-22T07:44:42.806Z,945.5
2017-09-22T07:45:50.954Z,945.5
2017-09-22T07:46:59.150Z,945.5
2017-09-22T07:48:07.070Z,945.5
2017-09-22T07:49:15.152Z,945.5
2017-09-22T07:50:23.242Z,945.6
2017-09-22T07:51:31.447Z,945.5
2017-09-22T07:52:39.423Z,945.5
2017-09-22T07:53:47.512Z,945.5
2017-09-22T07:54:55.717Z,945.5
2017-09-22T07:56:03.682Z,945.5
2017-09-22T07:57:12.013Z,945.5
2017-09-22T07:58:19.858Z,945.5
2017-09-22T07:59:27.943Z,945.5
2017-09-22T08:00:36.026Z,945.6
2017-09-22T08:01:44.315Z,945.6
2017-09-22T08:02:52.263Z,945.5
2017-09-22T08:04:00.294Z,945.6
2017-09-22T08:05:08.421Z,945.5
2017-09-22T08:06:16.466Z,945.6
2017-09-22T08:07:24.551Z,945.6
2017-09-22T08:08:32.693Z,945.6
2017-09-22T08:09:40.729Z,945.6
2017-09-22T08:10:48.951Z,945.6
2017-09-22T08:11:57.050Z,945.6
2017-09-22T08:13:05.002Z,945.6
2017-09-22T08:14:13.211Z,945.6
2017-09-22T08:15:21.252Z,945.6
2017-09-22T08:16:29.273Z,945.6
2017-09-22T08:17:37.370Z,945.6
2017-09-22T08:18:45.453Z,945.6
2017-09-22T08:19:53.814Z,945.7
2017-09-22T08:21:01.698Z,945.6
2017-09-22T08:22:09.792Z,945.7
2017-09-22T08:23:17.881Z,945.7
2017-09-22T08:24:25.978Z,945.7
2017-09-22T08:25:34.184Z,945.8
2017-09-22T08:26:42.205Z,945.8
2017-09-22T08:27:50.232Z,945.8
2017-09-22T08:28:58.320Z,945.8
2017-09-22T08:30:06.410Z,945.8
2017-09-22T08:31:14.550Z,945.8
2017-09-22T08:32:22.581Z,945.8
2017-09-22T08:33:30.840Z,945.8
2017-09-22T08:34:38.754Z,945.8
2017-09-22T08:35:46.844Z,945.8
2017-09-22T08:36:55.047Z,945.8
2017-09-22T08:38:03.083Z,945.8
2017-09-22T08:39:11.097Z,945.8
2017-09-22T08:40:19.183Z,945.8
2017-09-22T08:41:27.273Z,945.7
2017-09-22T08:42:35.479Z,945.8
2017-09-22T08:43:43.446Z,945.8
2017-09-22T08:44:51.540Z,945.8
2017-09-22T08:45:59.625Z,945.8
2017-09-22T08:47:07.711Z,945.7
2017-09-22T08:48:15.924Z,945.8
2017-09-22T08:49:23.885Z,945.8
2017-09-22T08:50:31.972Z,945.7
2017-09-22T08:51:40.060Z,945.8
2017-09-22T08:52:48.148Z,945.8
2017-09-22T08:53:56.291Z,945.8
2017-09-22T08:55:04.320Z,945.8
2017-09-22T08:56:12.407Z,945.8
2017-09-22T08:57:20.494Z,945.8
2017-09-22T08:58:28.635Z,945.7
2017-09-22T08:59:36.735Z,945.7
2017-09-22T09:00:44.764Z,945.7
2017-09-22T09:01:52.852Z,945.7
2017-09-22T09:03:00.940Z,945.7
2017-09-22T09:04:09.026Z,945.7
2017-09-22T09:05:17.232Z,945.6
2017-09-22T09:06:25.200Z,945.7
2017-09-22T09:07:33.286Z,945.6
2017-09-22T09:08:41.374Z,945.7
2017-09-22T09:09:49.459Z,945.7
2017-09-22T09:10:57.599Z,945.7
2017-09-22T09:12:05.728Z,945.6
2017-09-22T09:13:13.811Z,945.7
2017-09-22T09:14:22.019Z,945.7
2017-09-22T09:15:29.985Z,945.6
2017-09-22T09:16:38.127Z,945.6
2017-09-22T09:17:46.160Z,945.7
2017-09-22T09:18:54.245Z,945.7
2017-09-22T09:20:02.388Z,945.7
2017-09-22T09:21:10.419Z,945.6
2017-09-22T09:22:19.027Z,945.6
2017-09-22T09:23:26.590Z,945.6
2017-09-22T09:24:34.716Z,945.6
2017-09-22T09:25:42.765Z,945.6
2017-09-22T09:26:50.852Z,945.6
2017-09-22T09:27:59.060Z,945.6
2017-09-22T09:29:07.026Z,945.6
2017-09-22T09:30:15.167Z,945.6
2017-09-22T09:31:23.195Z,945.6
2017-09-22T09:32:31.467Z,945.6
2017-09-22T09:33:39.426Z,945.6
2017-09-22T09:34:47.457Z,945.6
2017-09-22T09:35:55.545Z,945.6
2017-09-22T09:37:03.629Z,945.6
2017-09-22T09:38:11.717Z,945.6
2017-09-22T09:39:19.921Z,945.6
2017-09-22T09:40:27.889Z,945.6
2017-09-22T09:41:35.974Z,945.6
2017-09-22T09:42:44.096Z,945.7
2017-09-22T09:43:52.151Z,945.7
2017-09-22T09:45:00.299Z,945.7
2017-09-22T09:46:08.449Z,945.7
2017-09-22T09:47:16.435Z,945.7
2017-09-22T09:48:24.502Z,945.7
2017-09-22T09:49:32.588Z,945.7
2017-09-22T09:50:40.735Z,945.7
2017-09-22T09:51:48.895Z,945.7
2017-09-22T09:52:56.861Z,945.7
2017-09-22T09:54:04.940Z,945.6
2017-09-22T09:55:13.029Z,945.6
2017-09-22T09:56:21.353Z,945.6
2017-09-22T09:57:29.198Z,945.7
2017-09-22T09:58:37.288Z,945.6
2017-09-22T09:59:45.369Z,945.6
2017-09-22T10:00:53.467Z,945.7
2017-09-22T10:02:01.683Z,945.6
2017-09-22T10:03:09.645Z,945.6
2017-09-22T10:04:17.732Z,945.6
2017-09-22T10:05:25.820Z,945.6
2017-09-22T10:06:33.907Z,945.7
2017-09-22T10:07:42.237Z,945.7
2017-09-22T10:08:50.083Z,945.7
2017-09-22T10:09:58.275Z,945.7
2017-09-22T10:11:06.318Z,945.7
2017-09-22T10:12:14.346Z,945.7
2017-09-22T10:13:22.487Z,945.7
2017-09-22T10:14:30.526Z,945.6
2017-09-22T10:15:38.605Z,945.6
2017-09-22T10:16:46.702Z,945.6
2017-09-22T10:17:54.909Z,945.6
2017-09-22T10:19:03.047Z,945.6
2017-09-22T10:20:10.962Z,945.6
2017-09-22T10:21:19.048Z,945.6
2017-09-22T10:22:27.139Z,945.6
2017-09-22T10:23:35.324Z,945.6
2017-09-22T10:24:43.370Z,945.6
2017-09-22T10:25:51.401Z,945.6
2017-09-22T10:26:59.493Z,945.5
2017-09-22T10:28:07.577Z,945.5
2017-09-22T10:29:15.705Z,945.5
2017-09-22T10:30:23.815Z,945.5
2017-09-22T10:31:31.847Z,945.5
2017-09-22T10:32:39.933Z,945.5
2017-09-22T10:33:48.186Z,945.5
2017-09-22T10:34:56.108Z,945.5
2017-09-22T10:36:04.250Z,945.5
2017-09-22T10:37:12.284Z,945.5
2017-09-22T10:38:20.423Z,945.5
2017-09-22T10:39:28.457Z,945.5
2017-09-22T10:40:36.544Z,945.6
2017-09-22T10:41:44.687Z,945.6
2017-09-22T10:42:52.872Z,945.6
2017-09-22T10:44:00.808Z,945.6
2017-09-22T10:45:08.896Z,945.6
2017-09-22T10:46:16.976Z,945.6
2017-09-22T10:47:25.212Z,945.6
2017-09-22T10:48:33.149Z,945.6
2017-09-22T10:49:41.357Z,945.6
2017-09-22T10:50:49.325Z,945.6
2017-09-22T10:51:57.446Z,945.6
2017-09-22T10:53:05.576Z,945.6
2017-09-22T10:54:13.593Z,945.6
2017-09-22T10:55:21.678Z,945.6
2017-09-22T10:56:29.811Z,945.6
2017-09-22T10:57:37.855Z,945.6
2017-09-22T10:58:45.999Z,945.7
2017-09-22T10:59:54.029Z,945.6
2017-09-22T11:01:02.160Z,945.7
2017-09-22T11:02:10.213Z,945.6
2017-09-22T11:03:18.296Z,945.6
2017-09-22T11:04:26.440Z,945.6
2017-09-22T11:05:34.561Z,945.6
2017-09-22T11:06:42.564Z,945.6
2017-09-22T11:07:50.666Z,945.6
2017-09-22T11:08:58.746Z,945.6
2017-09-22T11:10:06.975Z,945.6
2017-09-22T11:11:14.923Z,945.6
2017-09-22T11:12:23.008Z,945.6
2017-09-22T11:13:31.097Z,945.6
2017-09-22T11:14:39.182Z,945.6
2017-09-22T11:15:47.328Z,945.6
2017-09-22T11:16:55.354Z,945.6
2017-09-22T11:18:03.441Z,945.6
2017-09-22T11:19:11.550Z,945.7
2017-09-22T11:20:19.615Z,945.6
2017-09-22T11:21:27.823Z,945.6
2017-09-22T11:22:35.790Z,945.6
2017-09-22T11:23:43.876Z,945.6
2017-09-22T11:24:52.027Z,945.6
2017-09-22T11:26:00.048Z,945.6
2017-09-22T11:27:08.192Z,945.6
2017-09-22T11:28:16.339Z,945.6
2017-09-22T11:29:24.348Z,945.5
2017-09-22T11:30:32.396Z,945.5
2017-09-22T11:31:40.483Z,945.6
2017-09-22T11:32:48.626Z,945.5
2017-09-22T11:33:56.657Z,945.5
2017-09-22T11:35:04.750Z,945.5
2017-09-22T11:36:12.830Z,945.5
2017-09-22T11:37:20.972Z,945.5
2017-09-22T11:38:29.124Z,945.5
2017-09-22T11:39:37.090Z,945.5
2017-09-22T11:40:45.178Z,945.6
2017-09-22T11:41:53.269Z,945.5
2017-09-22T11:43:01.351Z,945.5
2017-09-22T11:44:09.497Z,945.6
2017-09-22T11:45:17.526Z,945.5
2017-09-22T11:46:25.611Z,945.5
2017-09-22T11:47:33.699Z,945.5
2017-09-22T11:48:41.784Z,945.5
2017-09-22T11:49:49.996Z,945.5
2017-09-22T11:50:57.963Z,945.5
2017-09-22T11:52:06.104Z,945.5
2017-09-22T11:53:14.202Z,945.5
2017-09-22T11:54:22.235Z,945.5
2017-09-22T11:55:30.441Z,945.5
2017-09-22T11:56:38.412Z,945.5
2017-09-22T11:57:46.495Z,945.5
2017-09-22T11:58:54.582Z,945.5
2017-09-22T12:00:02.683Z,945.5
2017-09-22T12:01:10.857Z,945.5
2017-09-22T12:02:18.859Z,945.5
2017-09-22T12:03:26.947Z,945.5
2017-09-22T12:04:35.033Z,945.5
2017-09-22T12:05:43.237Z,945.5
2017-09-22T12:06:51.265Z,945.6
2017-09-22T12:07:59.308Z,945.5
2017-09-22T12:09:07.513Z,945.5
2017-09-22T12:10:15.575Z,945.5
2017-09-22T12:11:23.577Z,945.5
2017-09-22T12:12:31.718Z,945.5
2017-09-22T12:13:39.754Z,945.5
2017-09-22T12:14:47.912Z,945.4
2017-09-22T12:15:55.921Z,945.5
2017-09-22T12:17:04.012Z,945.5
2017-09-22T12:18:12.218Z,945.5
2017-09-22T12:19:20.367Z,945.5
2017-09-22T12:20:28.270Z,945.5
2017-09-22T12:21:36.361Z,945.5
2017-09-22T12:22:44.449Z,945.5
2017-09-22T12:23:52.822Z,945.5
2017-09-22T12:25:00.679Z,945.5
2017-09-22T12:26:08.710Z,945.5
2017-09-22T12:27:16.797Z,945.5
2017-09-22T12:28:25.055Z,945.5
2017-09-22T12:29:33.044Z,945.5
2017-09-22T12:30:41.078Z,945.5
2017-09-22T12:31:49.162Z,945.5
2017-09-22T12:32:57.418Z,945.5
2017-09-22T12:34:05.343Z,945.5
2017-09-22T12:35:13.487Z,945.6
2017-09-22T12:36:21.511Z,945.5
2017-09-22T12:37:29.599Z,945.5
2017-09-22T12:38:37.686Z,945.5
2017-09-22T12:39:45.781Z,945.5
2017-09-22T12:40:53.981Z,945.5
2017-09-22T12:42:01.947Z,945.5
2017-09-22T12:43:10.033Z,945.5
2017-09-22T12:44:18.122Z,945.5
2017-09-22T12:45:26.238Z,945.5
2017-09-22T12:46:34.351Z,945.5
2017-09-22T12:47:42.390Z,945.5
2017-09-22T12:48:50.478Z,945.5
2017-09-22T12:49:58.566Z,945.5
2017-09-22T12:51:06.804Z,945.5
2017-09-22T12:52:14.795Z,945.5
2017-09-22T12:53:22.825Z,945.5
2017-09-22T12:54:30.915Z,945.5
2017-09-22T12:55:39.156Z,945.5
2017-09-22T12:56:47.140Z,945.4
2017-09-22T12:57:55.293Z,945.5
2017-09-22T12:59:03.258Z,945.5
2017-09-22T13:00:11.350Z,945.5
2017-09-22T13:01:19.438Z,945.5
2017-09-22T13:02:27.523Z,945.4
2017-09-22T13:03:35.660Z,945.4
2017-09-22T13:04:43.853Z,945.4
2017-09-22T13:05:51.870Z,945.4
2017-09-22T13:06:59.866Z,945.5
2017-09-22T13:08:07.953Z,945.4
2017-09-22T13:09:16.328Z,945.4
2017-09-22T13:10:24.233Z,945.4
2017-09-22T13:11:32.221Z,945.4
2017-09-22T13:12:40.364Z,945.4
2017-09-22T13:13:48.393Z,945.4
2017-09-22T13:14:56.552Z,945.4
2017-09-22T13:16:04.568Z,945.4
2017-09-22T13:17:12.653Z,945.4
2017-09-22T13:18:20.740Z,945.4
2017-09-22T13:19:28.957Z,945.4
2017-09-22T13:20:37.038Z,945.5
2017-09-22T13:21:45.003Z,945.4
2017-09-22T13:22:53.088Z,945.4
2017-09-22T13:24:01.175Z,945.5
2017-09-22T13:25:09.264Z,945.4
2017-09-22T13:26:17.516Z,945.5
2017-09-22T13:27:25.482Z,945.4
2017-09-22T13:28:33.802Z,945.4
2017-09-22T13:29:41.754Z,945.4
2017-09-22T13:30:49.836Z,945.5
2017-09-22T13:31:58.084Z,945.4
2017-09-22T13:33:06.004Z,945.4
2017-09-22T13:34:14.090Z,945.5
2017-09-22T13:35:22.177Z,945.4
2017-09-22T13:36:30.266Z,945.4
2017-09-22T13:37:38.475Z,945.4
2017-09-22T13:38:46.439Z,945.4
2017-09-22T13:39:54.526Z,945.4
2017-09-22T13:41:02.623Z,945.4
2017-09-22T13:42:10.710Z,945.4
2017-09-22T13:43:18.918Z,945.4
2017-09-22T13:44:26.942Z,945.4
2017-09-22T13:45:34.971Z,945.4
2017-09-22T13:46:43.244Z,945.4
2017-09-22T13:47:51.220Z,945.4
2017-09-22T13:48:59.358Z,945.4
2017-09-22T13:50:07.386Z,945.4
2017-09-22T13:51:15.474Z,945.4
2017-09-22T13:52:23.561Z,945.4
2017-09-22T13:53:31.682Z,945.4
2017-09-22T13:54:39.889Z,945.3
2017-09-22T13:55:47.863Z,945.3
2017-09-22T13:56:55.941Z,945.3
2017-09-22T13:58:04.028Z,945.4
2017-09-22T13:59:12.122Z,945.3
2017-09-22T14:00:20.418Z,945.4
2017-09-22T14:01:28.292Z,945.4
2017-09-22T14:02:36.380Z,945.4
2017-09-22T14:03:44.467Z,945.4
2017-09-22T14:04:52.750Z,945.4
2017-09-22T14:06:00.698Z,945.3
2017-09-22T14:07:08.728Z,945.4
2017-09-22T14:08:16.816Z,945.3
2017-09-22T14:09:24.898Z,945.4
2017-09-22T14:10:32.989Z,945.4
2017-09-22T14:11:41.193Z,945.4
2017-09-22T14:12:49.164Z,945.4
2017-09-22T14:13:57.415Z,945.4
2017-09-22T14:15:05.334Z,945.4
2017-09-22T14:16:13.478Z,945.4
2017-09-22T14:17:21.565Z,945.4
2017-09-22T14:18:29.776Z,945.4
2017-09-22T14:19:37.680Z,945.4
2017-09-22T14:20:45.769Z,945.4
2017-09-22T14:21:53.854Z,945.4
2017-09-22T14:23:02.247Z,945.4
2017-09-22T14:24:10.026Z,945.4
2017-09-22T14:25:18.117Z,945.4
2017-09-22T14:26:26.205Z,945.4
2017-09-22T14:27:34.477Z,945.4
2017-09-22T14:28:42.430Z,945.4
2017-09-22T14:29:50.462Z,945.4
2017-09-22T14:30:58.561Z,945.4
2017-09-22T14:32:06.691Z,945.4
2017-09-22T14:33:14.733Z,945.3
2017-09-22T14:34:22.939Z,945.4
2017-09-22T14:35:30.919Z,945.4
2017-09-22T14:36:38.993Z,945.4